Metar Report
Metar
METAR KTYQ 211656Z AUTO 01009KT 10SM -DZ OVC011 02/01 A3046 A02 3787
METAR KTYQ 211556Z AUTO 02007KT 10SM -RA BKN010 OVC042 01/01 A3043 A02 P0001 3786
METAR KTYQ 211456Z AUTO 36009KT 4SM RA OVC010 01/01 A3042 A02 P0002 3785
METAR KTYQ 211356Z AUTO 34010KT 7SM RA BKN008 OVC028 02/01 A3038 A02 P0003 3784
METAR KTYQ 211256Z AUTO 35012G16KT 5SM RA OVC008 02/02 A3033 A02 P0004 3783
METAR KTYQ 211156Z AUTO 34013KT 10SM RA SCT010 OVC019 03/02 A3031 A02 P0003 3782
METAR KTYQ 211056Z AUTO 36012G15KT 10SM RA OVC008 04/04 A3022 A02 P0003 3781
METAR KTYQ 210956Z AUTO 33010G15KT 7SM -RA OVC007 05/04 A3023 A02 P0003 3780
METAR KTYQ 210856Z AUTO 31009G14KT 7SM RA BKN007 OVC012 06/06 A3018 A02 P0011 3779
METAR KTYQ 210756Z AUTO 33011G16KT 4SM +RA BKN005 OVC014 07/07 A3013 A02 P0014 3778
METAR KTYQ 210656Z AUTO 32010KT 3SM +RA SCT006 SCT013 OVC035 08/08 A3010 A02 P0028 3777
METAR KTYQ 210556Z AUTO 33018G21KT 10SM SCT009 BKN039 OVC046 14/13 A3003 A02 3776
METAR KTYQ 210456Z AUTO 05006KT 10SM BKN044 OVC050 14/13 A3004 A02 3775
METAR KTYQ 210356Z AUTO 03006KT 10SM BKN060 BKN065 OVC085 15/13 A3006 A02 3774
METAR KTYQ 210256Z AUTO 20012G21KT 10SM SCT070 BKN085 19/13 A3006 A02 3773
METAR KTYQ 210156Z AUTO 20016G21KT 10SM SCT075 20/12 A3004 A02 3772
METAR KTYQ 210056Z AUTO 20014G20KT 10SM SCT075 20/13 A3003 A02 3771
METAR KTYQ 202356Z AUTO 20016G19KT 10SM SCT050 SCT080 21/13 A3003 A02 3770
METAR KTYQ 202256Z AUTO 20018G21KT 10SM SCT055 SCT080 21/14 A3001 A02 3769
METAR KTYQ 202156Z AUTO 20023G29KT 10SM CLR 22/14 A3001 A02 3768
METAR KTYQ 202056Z AUTO 20022G32KT 10SM SCT050 SCT060 SCT090 22/14 A3000 A02 3767
METAR KTYQ 201956Z AUTO 22019G29KT 10SM SCT046 BKN070 22/14 A3000 A02 3766
METAR KTYQ 201856Z AUTO 21024G33KT 10SM SCT065 SCT080 BKN110 22/14 A3002 A02 3765
METAR KTYQ 201756Z AUTO 23025G35KT 10SM SCT044 BKN070 OVC075 21/14 A3004 A02 3764
METAR KTYQ 201656Z AUTO 21020G31KT 10SM BKN070 OVC090 19/13 A3004 A02 3763
METAR KTYQ 201556Z AUTO 20024G33KT 10SM SCT035 BKN070 BKN095 19/14 A3003 A02 3762
METAR KTYQ 201456Z AUTO 22023G30KT 10SM SCT029 SCT034 OVC065 18/15 A3004 A02 3761
METAR KTYQ 201356Z AUTO 21021G30KT 10SM SCT026 BKN070 OVC075 18/15 A3000 A02 3760
METAR KTYQ 201256Z AUTO 21021G27KT 10SM SCT027 BKN070 BKN120 18/14 A2999 A02 3759
METAR KTYQ 201156Z AUTO 20017G27KT 10SM SCT031 SCT080 SCT090 18/14 A2998 A02 3758
METAR KTYQ 201056Z AUTO 19014G20KT 10SM SCT044 17/14 A2999 A02 3757
METAR KTYQ 200956Z AUTO 19015G21KT 10SM CLR 17/14 A2998 A02 3756
METAR KTYQ 200856Z AUTO 20013G20KT 10SM OVC090 17/14 A2999 A02 3755
METAR KTYQ 200756Z AUTO 20013G17KT 10SM SCT070 BKN080 OVC110 17/14 A2999 A02 3754
METAR KTYQ 200656Z AUTO 20014G21KT 10SM BKN110 17/14 A2999 A02 3753
METAR KTYQ 200556Z AUTO 19017G20KT 10SM BKN065 16/13 A2998 A02 3752
METAR KTYQ 200456Z AUTO 19013KT 10SM SCT055 SCT065 BKN090 16/12 A2998 A02 3751
METAR KTYQ 200356Z AUTO 19009KT 10SM BKN065 14/12 A2998 A02 3750
METAR KTYQ 200256Z AUTO 17007KT 10SM CLR 13/13 A2998 A02 3749
METAR KTYQ 200156Z AUTO 16004KT 10SM SCT075 BKN100 OVC110 13/13 A2999 A02 P0001 3748
METAR KTYQ 200056Z AUTO 21006KT 10SM RA OVC075 14/14 A3000 A02 P0001 3747
METAR KTYQ 192356Z AUTO 21012KT 10SM -RA BKN075 OVC095 15/14 A3000 A02 P0001 3746
METAR KTYQ 192256Z AUTO 21008KT 10SM OVC085 15/14 A3000 A02 3745
METAR KTYQ 192156Z AUTO 22013G19KT 10SM OVC085 16/14 A2999 A02 3744
METAR KTYQ 192056Z AUTO 21015G22KT 10SM -DZ OVC095 15/14 A2998 A02 3743
METAR KTYQ 191956Z AUTO 21020G28KT 10SM -DZ SCT016 BKN021 OVC032 15/14 A2996 A02 3742
METAR KTYQ 191856Z AUTO 22021G31KT 10SM DZ SCT016 BKN021 BKN029 15/14 A2996 A02 P0001 3741
METAR KTYQ 191756Z AUTO 20016G20KT 7SM DZ SCT010 OVC016 14/14 A2997 A02 P0004 3740
METAR KTYQ 191656Z AUTO 21018G26KT 7SM RA BKN015 OVC023 15/14 A2998 A02 P0001 3739
METAR KTYQ 191556Z AUTO 21014G23KT 10SM OVC015 14/14 A2996 A02 3738
METAR KTYQ 191456Z AUTO 18009KT 3SM BR OVC007 11/11 A2996 A02 3737
METAR KTYQ 191356Z AUTO 15008KT 2SM RA OVC003 08/08 A2995 A02 P0013 3736
METAR KTYQ 191256Z AUTO 12003KT 2 1/2SM -RA OVC005 07/07 A2998 A02 P0010 3735
METAR KTYQ 191156Z AUTO 19005G08KT 5SM VCTSRA SCT016 OVC024 08/08 A2999 A02 P0038 3734
METAR KTYQ 191056Z AUTO 21009KT 4SM +RA BKN014 BKN019 OVC026 08/08 A2999 A02 P0043 3733
METAR KTYQ 190956Z AUTO 19012KT 10SM OVC014 07/05 A2994 A02 P0001 3732
METAR KTYQ 190856Z AUTO 18013KT 10SM -RA OVC016 06/03 A2994 A02 P0005 3731
METAR KTYQ 190756Z AUTO 19012KT 10SM SCT050 BKN075 BKN090 06/02 A2997 A02 3730
METAR KTYQ 190656Z AUTO 18014G18KT 10SM SCT025 BKN120 06/01 A2998 A02 3729
METAR KTYQ 190556Z AUTO 17011KT 10SM SCT031 BKN095 BKN110 05/01 A2999 A02 3728
METAR KTYQ 190456Z AUTO 16014G18KT 10SM BKN035 BKN042 OVC050 05/01 A3002 A02 3727
METAR KTYQ 190356Z AUTO 16012G17KT 10SM SCT070 04/01 A3004 A02 3726
METAR KTYQ 190256Z AUTO 15014G17KT 10SM CLR 04/00 A3006 A02 3725
METAR KTYQ 190156Z AUTO 14009KT 10SM CLR 03/01 A3008 A02 3724
METAR KTYQ 190056Z AUTO 14009KT 10SM CLR 04/00 A3010 A02 3723
METAR KTYQ 182356Z AUTO 13008KT 10SM CLR 04/00 A3013 A02 3722
METAR KTYQ 182256Z AUTO 14009KT 10SM CLR 05/00 A3014 A02 3721
METAR KTYQ 182156Z AUTO 14012KT 10SM CLR 06/00 A3016 A02 3720
METAR KTYQ 182056Z AUTO 15013KT 10SM CLR 06/00 A3018 A02 3719
METAR KTYQ 181956Z AUTO 14010KT 10SM CLR 06/00 A3021 A02 3718
METAR KTYQ 181856Z AUTO 16008KT 10SM CLR 04/M01 A3025 A02 3717
METAR KTYQ 181756Z AUTO 14007KT 10SM CLR 02/M01 A3029 A02 3716
METAR KTYQ 181656Z AUTO 16015KT 10SM SCT012 01/M02 A3032 A02 3715
METAR KTYQ 181556Z AUTO 17012G15KT 10SM BKN010 M01/M03 A3033 A02 3714
METAR KTYQ 181456Z AUTO 13009KT 10SM OVC010 M02/M03 A3034 A02 3713
METAR KTYQ 181356Z AUTO 17010KT 10SM OVC008 M02/M03 A3034 A02 3712
METAR KTYQ 181256Z AUTO 14007KT 7SM OVC008 M03/M03 A3031 A02 3711
METAR KTYQ 181156Z AUTO 13004KT 10SM OVC008 M03/M04 A3031 A02 3710
METAR KTYQ 181056Z AUTO 36003KT 10SM OVC008 M03/M04 A3030 A02 3709
METAR KTYQ 180956Z AUTO 34009KT 10SM OVC008 M03/M04 A3028 A02 3708
METAR KTYQ 180856Z AUTO 31007KT 10SM OVC010 M02/M04 A3025 A02 3707
METAR KTYQ 180756Z AUTO 28009KT 10SM OVC012 M02/M03 A3023 A02 3706
METAR KTYQ 180656Z AUTO 26012KT 10SM OVC016 M01/M03 A3023 A02 3705
METAR KTYQ 180556Z AUTO 28008G14KT 10SM OVC016 M01/M03 A3020 A02 3704
METAR KTYQ 180456Z AUTO 29009G14KT 10SM OVC018 M01/M03 A3016 A02 3703
METAR KTYQ 180356Z AUTO 30013G22KT 10SM OVC018 00/M02 A3013 A02 3702
METAR KTYQ 180256Z AUTO 28012G21KT 10SM BKN020 OVC026 00/M01 A3010 A02 3701
METAR KTYQ 180156Z AUTO 27014G20KT 10SM SCT007 BKN017 OVC022 01/00 A3007 A02 3700
METAR KTYQ 180056Z AUTO 25011G17KT 4SM -RA OVC007 01/00 A3004 A02 3699
METAR KTYQ 172356Z AUTO 21007KT 3SM -SN OVC005 00/00 A3001 A02 P0001 3698
METAR KTYQ 172256Z AUTO 19006KT 1 1/2SM -SN OVC005 00/00 A2999 A02 P0002 3697
METAR KTYQ 172156Z AUTO 20005KT 2 1/2SM -RA BKN007 OVC013 00/00 A2999 A02 3696
METAR KTYQ 172056Z AUTO 22005KT 7SM BR OVC007 00/M01 A2999 A02 3695
METAR KTYQ 171956Z AUTO 22007KT 7SM OVC007 00/M01 A2998 A02 3694
METAR KTYQ 171856Z AUTO 20006KT 10SM OVC011 00/M01 A3000 A02 3693
METAR KTYQ 171756Z AUTO 16009KT 10SM BKN017 BKN075 OVC090 00/M03 A3003 A02 3692
METAR KTYQ 171656Z AUTO 31003KT 10SM BKN090 BKN120 M01/M03 A3009 A02 3691
METAR KTYQ 171556Z AUTO 00000KT 10SM SCT060 OVC075 M01/M04 A3010 A02 3690
METAR KTYQ 171456Z AUTO 14007KT 10SM BKN075 OVC085 M02/M04 A3011 A02 3689
METAR KTYQ 171356Z AUTO 15005KT 10SM OVC110 M02/M04 A3016 A02 3688
METAR KTYQ 171256Z AUTO 16004KT 10SM CLR M03/M04 A3020 A02 3687
METAR KTYQ 171156Z AUTO 14003KT 10SM CLR M03/M05 A3018 A02 3686
METAR KTYQ 171056Z AUTO 15003KT 10SM CLR M03/M05 A3020 A02 3685
METAR KTYQ 170956Z AUTO 16003KT 10SM CLR M03/M05 A3021 A02 3684
METAR KTYQ 170856Z AUTO 00000KT 10SM SCT026 M03/M04 A3022 A02 3683
METAR KTYQ 170756Z AUTO 00000KT 10SM CLR M03/M04 A3024 A02 3682
METAR KTYQ 170656Z AUTO 00000KT 10SM CLR M03/M04 A3026 A02 3681
METAR KTYQ 170556Z AUTO 00000KT 10SM CLR M03/M04 A3026 A02 3680
METAR KTYQ 170456Z AUTO 00000KT 10SM CLR M02/M04 A3027 A02 3679
METAR KTYQ 170356Z AUTO 00000KT 10SM CLR M02/M04 A3029 A02 3678
METAR KTYQ 170256Z AUTO 00000KT 10SM OVC031 M01/M04 A3029 A02 3677
METAR KTYQ 170156Z AUTO 00000KT 10SM OVC033 M01/M04 A3029 A02 3676
METAR KTYQ 170056Z AUTO 00000KT 10SM OVC033 M01/M04 A3030 A02 3675
METAR KTYQ 162356Z AUTO 00000KT 10SM OVC031 M01/M04 A3029 A02 3674
METAR KTYQ 162256Z AUTO 34008KT 10SM OVC029 00/M04 A3028 A02 3673
METAR KTYQ 162156Z AUTO 34009KT 10SM OVC031 01/M04 A3027 A02 3672
METAR KTYQ 162056Z AUTO 34011KT 10SM OVC025 01/M03 A3025 A02 3671
METAR KTYQ 161956Z AUTO 34012KT 10SM OVC023 01/M03 A3023 A02 3670
METAR KTYQ 161856Z AUTO 33014G19KT 10SM OVC025 01/M03 A3021 A02 3669
METAR KTYQ 161756Z AUTO 34013G18KT 10SM OVC023 01/M02 A3021 A02 3668
METAR KTYQ 161656Z AUTO 33013G21KT 10SM BKN020 BKN026 01/M02 A3018 A02 3667